Time;durP1;ratioP1;P1;durP2;ratioP2;P2;SDS_P1;SDS_P2;PMS_P1;PMS_P2;Temp;Humidity;BMP_temperature;BMP_pressure;BME280_temperature;BME280_humidity;BME280_pressure;Samples;Min_cycle;Max_cycle;Signal;HPM_P1;HPM_P2
2022/08/17 00:00:31;;;;;;;6.47;4.70;;;28.60;62.30;;;;;;5051873;28;20068;-70
2022/08/17 00:02:58;;;;;;;8.18;4.90;;;28.60;62.30;;;;;;5052315;28;20037;-70
2022/08/17 00:05:26;;;;;;;6.72;4.28;;;28.50;62.30;;;;;;5054538;28;20058;-70
2022/08/17 00:07:52;;;;;;;5.03;4.47;;;28.70;62.30;;;;;;5071734;28;20378;-70
2022/08/17 00:10:18;;;;;;;4.90;4.20;;;28.70;62.20;;;;;;5072141;28;20050;-70
2022/08/17 00:12:45;;;;;;;5.50;4.53;;;28.70;62.20;;;;;;5071801;28;20033;-70
2022/08/17 00:15:12;;;;;;;6.03;4.25;;;28.60;62.20;;;;;;5072340;28;20085;-71
2022/08/17 00:17:40;;;;;;;6.47;5.15;;;28.70;62.20;;;;;;5086299;28;20044;-71
2022/08/17 00:20:08;;;;;;;5.60;4.57;;;28.50;62.20;;;;;;5059221;28;20047;-70
2022/08/17 00:22:34;;;;;;;5.60;4.78;;;28.70;62.20;;;;;;5069553;28;20071;-70
2022/08/17 00:25:00;;;;;;;5.85;4.82;;;28.60;62.20;;;;;;5070695;28;20072;-70
2022/08/17 00:27:26;;;;;;;4.95;4.28;;;28.50;62.10;;;;;;5070730;28;20036;-70
2022/08/17 00:29:52;;;;;;;8.07;5.18;;;28.50;62.00;;;;;;5070102;28;20397;-70
2022/08/17 00:32:18;;;;;;;5.95;4.75;;;28.60;62.00;;;;;;5071649;28;20036;-70
2022/08/17 00:34:44;;;;;;;7.32;4.25;;;28.50;62.00;;;;;;5071612;28;20393;-68
2022/08/17 00:37:10;;;;;;;7.13;4.13;;;28.50;62.10;;;;;;5071591;28;20040;-70
2022/08/17 00:39:37;;;;;;;5.97;5.00;;;28.60;62.20;;;;;;5041601;28;20076;-69
2022/08/17 00:42:13;;;;;;;6.95;4.63;;;28.50;62.20;;;;;;5031539;28;20053;-70
2022/08/17 00:44:39;;;;;;;6.78;4.72;;;28.60;62.20;;;;;;5057217;28;20043;-71
2022/08/17 00:47:05;;;;;;;5.10;4.60;;;28.60;62.20;;;;;;5071089;28;20041;-70
2022/08/17 00:49:31;;;;;;;8.98;4.18;;;28.50;62.30;;;;;;5071673;28;20381;-70
2022/08/17 00:52:09;;;;;;;5.10;3.67;;;28.50;62.20;;;;;;5070256;28;20048;-70
2022/08/17 00:54:39;;;;;;;6.03;4.88;;;28.60;62.30;;;;;;5071572;28;20119;-70
2022/08/17 00:57:09;;;;;;;4.25;3.75;;;28.50;62.30;;;;;;5031308;28;20041;-70
2022/08/17 00:59:39;;;;;;;4.32;3.67;;;28.50;62.30;;;;;;5032745;28;20041;-70
2022/08/17 01:02:11;;;;;;;3.85;3.30;;;28.50;62.30;;;;;;5071421;28;20514;-70
2022/08/17 01:04:38;;;;;;;7.82;4.05;;;28.60;62.30;;;;;;5063500;28;20060;-69
2022/08/17 01:07:05;;;;;;;8.85;5.00;;;28.50;62.30;;;;;;5051565;28;20087;-70
2022/08/17 01:09:32;;;;;;;5.85;5.22;;;28.60;62.30;;;;;;5051271;28;20086;-70
2022/08/17 01:11:59;;;;;;;8.07;5.13;;;28.70;62.30;;;;;;5050404;28;20458;-70
2022/08/17 01:14:25;;;;;;;6.40;5.72;;;28.60;62.30;;;;;;5051447;28;20033;-70
2022/08/17 01:16:53;;;;;;;9.65;6.45;;;28.60;62.40;;;;;;5051306;28;20037;-70
2022/08/17 01:19:33;;;;;;;11.20;6.00;;;28.50;62.50;;;;;;5051068;28;20036;-70
2022/08/17 01:22:05;;;;;;;8.77;5.45;;;28.50;62.60;;;;;;5051369;28;20041;-70
2022/08/17 01:24:32;;;;;;;;;;;28.60;62.60;;;;;;5051675;28;20060;-70
2022/08/17 01:26:59;;;;;;;7.65;5.45;;;28.60;62.50;;;;;;5033756;28;20400;-70
2022/08/17 01:29:29;;;;;;;7.50;5.05;;;28.60;62.50;;;;;;5051175;28;20037;-70
2022/08/17 01:31:59;;;;;;;5.75;5.13;;;28.60;62.50;;;;;;5061413;28;20420;-70
2022/08/17 01:34:25;;;;;;;8.63;5.35;;;28.60;62.40;;;;;;5051517;28;20079;-70
2022/08/17 01:36:52;;;;;;;7.95;5.35;;;28.60;62.40;;;;;;5051037;28;20087;-70
2022/08/17 01:39:24;;;;;;;5.70;4.78;;;28.60;62.40;;;;;;5051036;28;20060;-70
2022/08/17 01:41:56;;;;;;;5.20;4.33;;;28.60;62.40;;;;;;5060066;28;20083;-70
2022/08/17 01:44:25;;;;;;;7.25;5.05;;;28.50;62.40;;;;;;5050541;28;20361;-70
2022/08/17 01:46:51;;;;;;;9.07;5.32;;;28.60;62.40;;;;;;5050910;28;20412;-70
2022/08/17 01:49:18;;;;;;;8.18;5.30;;;28.50;62.40;;;;;;5051293;28;20052;-70
2022/08/17 01:51:44;;;;;;;7.53;4.80;;;28.50;62.30;;;;;;5050949;28;20033;-69
2022/08/17 01:54:15;;;;;;;9.18;5.95;;;28.60;62.30;;;;;;5050866;28;20453;-70
2022/08/17 01:56:46;;;;;;;9.63;5.40;;;28.50;62.30;;;;;;5049590;28;20025;-70
2022/08/17 01:59:12;;;;;;;9.18;5.72;;;28.40;62.40;;;;;;5054277;28;20043;-70
2022/08/17 02:01:39;;;;;;;8.45;5.82;;;28.50;62.50;;;;;;5054566;28;20025;-70
2022/08/17 02:04:06;;;;;;;7.45;5.85;;;28.60;62.50;;;;;;5053775;28;20025;-70
2022/08/17 02:06:35;;;;;;;6.28;4.85;;;28.50;62.50;;;;;;5053936;28;20033;-70
2022/08/17 02:09:02;;;;;;;6.13;5.25;;;28.60;62.50;;;;;;5053756;28;20102;-70
2022/08/17 02:11:28;;;;;;;6.90;5.07;;;28.50;62.50;;;;;;5054103;28;20061;-70
2022/08/17 02:13:54;;;;;;;9.18;5.75;;;28.60;62.50;;;;;;5054016;28;20544;-70
2022/08/17 02:16:21;;;;;;;7.72;5.43;;;28.60;62.50;;;;;;5054097;28;20029;-70
2022/08/17 02:18:47;;;;;;;8.98;4.78;;;28.60;62.50;;;;;;5053737;28;20037;-70
2022/08/17 02:21:13;;;;;;;9.30;6.30;;;28.50;62.50;;;;;;5054196;28;20116;-71
2022/08/17 02:23:43;;;;;;;8.77;5.07;;;28.50;62.50;;;;;;5053940;28;20450;-70
2022/08/17 02:26:09;;;;;;;6.68;5.35;;;28.60;62.50;;;;;;5054178;28;20090;-70
2022/08/17 02:28:35;;;;;;;9.15;5.38;;;28.50;62.50;;;;;;5053845;28;20048;-70
2022/08/17 02:31:07;;;;;;;7.68;5.18;;;28.60;62.50;;;;;;5053995;28;20025;-70
2022/08/17 02:33:35;;;;;;;10.30;5.65;;;28.50;62.50;;;;;;5053782;28;20029;-70
2022/08/17 02:36:03;;;;;;;11.43;6.15;;;28.50;62.50;;;;;;5035958;28;20064;-70
2022/08/17 02:38:30;;;;;;;14.23;6.18;;;28.60;62.40;;;;;;5054429;28;20101;-70
2022/08/17 02:40:57;;;;;;;7.15;5.65;;;28.60;62.40;;;;;;5062156;28;20708;-70
2022/08/17 02:43:26;;;;;;;9.73;6.32;;;28.60;62.30;;;;;;5053609;28;20056;-70
2022/08/17 02:45:53;;;;;;;9.30;5.65;;;28.60;62.30;;;;;;5053478;28;20029;-70
2022/08/17 02:48:19;;;;;;;8.57;5.93;;;28.60;62.40;;;;;;5053171;28;20112;-70
2022/08/17 02:50:45;;;;;;;7.65;6.03;;;28.50;62.40;;;;;;5053522;28;20505;-70
2022/08/17 02:53:11;;;;;;;8.43;5.63;;;28.50;62.40;;;;;;5053000;28;20490;-70
2022/08/17 02:55:40;;;;;;;6.07;4.40;;;28.50;62.40;;;;;;5053175;28;20064;-70
2022/08/17 02:58:08;;;;;;;9.88;6.40;;;28.40;62.50;;;;;;5052621;28;20509;-70
2022/08/17 03:00:37;;;;;;;6.90;3.90;;;28.50;62.50;;;;;;5052078;28;20064;-69
2022/08/17 03:03:05;;;;;;;8.52;5.93;;;28.50;62.50;;;;;;5053041;28;20086;-70
2022/08/17 03:05:34;;;;;;;9.05;5.45;;;28.50;62.40;;;;;;5053046;28;20091;-70
2022/08/17 03:08:00;;;;;;;5.13;4.20;;;28.40;62.50;;;;;;5051793;28;20099;-69
2022/08/17 03:10:28;;;;;;;7.85;6.07;;;28.40;62.40;;;;;;5052631;28;20025;-70
2022/08/17 03:12:54;;;;;;;9.82;5.80;;;28.40;62.50;;;;;;5051971;28;20067;-70
2022/08/17 03:15:22;;;;;;;7.47;4.45;;;28.50;62.50;;;;;;5052959;28;20025;-70
2022/08/17 03:17:49;;;;;;;10.68;5.85;;;28.30;62.40;;;;;;5051931;28;20071;-70
2022/08/17 03:20:16;;;;;;;5.88;4.75;;;28.50;62.40;;;;;;5050587;28;20091;-70
2022/08/17 03:22:45;;;;;;;7.43;5.30;;;28.30;62.30;;;;;;5052724;28;20033;-70
2022/08/17 03:25:14;;;;;;;10.40;5.35;;;28.40;62.40;;;;;;5052982;28;20056;-70
2022/08/17 03:27:40;;;;;;;9.43;5.50;;;28.30;62.30;;;;;;5052797;28;20116;-70
2022/08/17 03:30:09;;;;;;;7.50;5.90;;;28.40;62.20;;;;;;5067820;28;20112;-70
2022/08/17 03:32:40;;;;;;;7.88;5.60;;;28.30;62.20;;;;;;5071375;28;20386;-69
2022/08/17 03:35:07;;;;;;;9.43;5.28;;;28.30;62.50;;;;;;5072814;28;20112;-70
2022/08/17 03:37:33;;;;;;;9.85;6.45;;;28.30;62.60;;;;;;5060496;28;20029;-70
2022/08/17 03:40:00;;;;;;;9.65;5.85;;;28.20;62.80;;;;;;5072558;28;20043;-70
2022/08/17 03:42:27;;;;;;;8.43;6.25;;;28.30;62.80;;;;;;5054646;28;20044;-70
2022/08/17 03:44:55;;;;;;;8.55;5.72;;;28.20;62.80;;;;;;5055187;28;20036;-70
2022/08/17 03:58:23;;;;;;;12.07;8.25;;;28.30;62.30;;;;;;5047923;28;20032;-71
2022/08/17 04:00:50;;;;;;;14.55;8.27;;;28.40;61.50;;;;;;5059523;28;20093;-71
2022/08/17 04:03:16;;;;;;;10.45;7.03;;;28.50;61.20;;;;;;5056905;28;20057;-71
2022/08/17 04:05:43;;;;;;;9.68;7.35;;;28.40;60.90;;;;;;5052239;28;20033;-70
2022/08/17 04:08:09;;;;;;;15.05;8.25;;;28.40;60.70;;;;;;5049773;28;20064;-71
2022/08/17 04:10:37;;;;;;;10.15;6.93;;;28.40;61.30;;;;;;5052046;28;20477;-70
2022/08/17 04:13:03;;;;;;;11.85;6.85;;;28.50;63.70;;;;;;5049588;28;20486;-69
2022/08/17 04:15:32;;;;;;;9.18;7.70;;;28.70;65.40;;;;;;5056759;28;20020;-69
2022/08/17 04:17:58;;;;;;;13.50;7.32;;;28.90;68.30;;;;;;5071748;28;20040;-68
2022/08/17 04:20:26;;;;;;;11.35;7.47;;;29.00;63.90;;;;;;5070915;28;20035;-69
2022/08/17 04:23:10;;;;;;;22.65;8.05;;;28.90;62.40;;;;;;5054316;28;20387;-69
2022/08/17 04:25:41;;;;;;;12.82;7.65;;;28.80;61.90;;;;;;5051882;28;20025;-68
2022/08/17 04:28:08;;;;;;;11.80;7.00;;;28.80;61.40;;;;;;5051519;28;20062;-69
2022/08/17 04:30:36;;;;;;;14.57;8.00;;;28.80;61.40;;;;;;5051486;28;20025;-69
2022/08/17 04:33:08;;;;;;;10.75;7.43;;;28.70;61.30;;;;;;5052077;28;20039;-69
2022/08/17 04:35:39;;;;;;;12.88;7.35;;;28.70;61.40;;;;;;5061538;28;20484;-69
2022/08/17 04:38:07;;;;;;;12.52;6.20;;;28.70;61.50;;;;;;5071711;28;20097;-69
2022/08/17 04:43:22;;;;;;;11.18;6.80;;;28.80;62.20;;;;;;5051312;28;20402;-70
2022/08/17 04:45:49;;;;;;;10.63;6.63;;;28.70;62.40;;;;;;5051735;28;20021;-69
2022/08/17 04:48:15;;;;;;;6.97;6.28;;;28.80;62.40;;;;;;5051825;28;20049;-69
2022/08/17 04:50:48;;;;;;;2.45;2.25;;;28.80;62.30;;;;;;5051395;28;20021;-69
2022/08/17 04:53:16;;;;;;;3.78;2.83;;;28.80;62.60;;;;;;5051426;28;20370;-69
2022/08/17 04:55:42;;;;;;;7.90;3.35;;;28.80;61.20;;;;;;5050101;28;20036;-69
2022/08/17 04:58:09;;;;;;;4.20;3.05;;;28.90;60.90;;;;;;5056181;28;20025;-69
2022/08/17 05:00:36;;;;;;;8.13;5.13;;;28.80;60.20;;;;;;5048569;28;20033;-70
2022/08/17 05:03:04;;;;;;;7.03;4.68;;;28.80;60.20;;;;;;5032148;28;20509;-70
2022/08/17 05:05:35;;;;;;;9.10;5.43;;;28.80;60.40;;;;;;5048809;28;20041;-70
2022/08/17 05:08:03;;;;;;;4.93;4.07;;;28.70;60.30;;;;;;5048914;28;20535;-70
2022/08/17 05:10:33;;;;;;;10.45;4.72;;;28.70;60.50;;;;;;5048756;28;20045;-70
2022/08/17 05:13:07;;;;;;;6.60;4.30;;;28.70;60.70;;;;;;5049034;28;20029;-70
2022/08/17 05:15:36;;;;;;;9.10;3.47;;;28.70;60.70;;;;;;5032132;28;20037;-69
2022/08/17 05:18:04;;;;;;;9.18;4.40;;;28.70;62.00;;;;;;5048854;28;20541;-68
2022/08/17 05:20:31;;;;;;;6.50;4.22;;;28.80;61.20;;;;;;5056145;28;20033;-72
2022/08/17 05:23:00;;;;;;;8.02;4.85;;;28.70;62.00;;;;;;5051025;28;20025;-70
2022/08/17 05:25:29;;;;;;;4.78;3.30;;;28.80;63.40;;;;;;5055742;28;20037;-69
2022/08/17 05:27:56;;;;;;;6.72;4.72;;;28.70;62.60;;;;;;5057567;28;20045;-70
2022/08/17 05:30:23;;;;;;;5.75;3.80;;;28.80;62.50;;;;;;5053426;28;20433;-70
2022/08/17 05:32:54;;;;;;;4.35;3.00;;;28.70;62.10;;;;;;5055004;28;20109;-70
2022/08/17 05:35:22;;;;;;;3.92;3.10;;;28.70;61.00;;;;;;5054418;28;20036;-71
2022/08/17 05:37:49;;;;;;;9.10;5.05;;;28.60;60.30;;;;;;5049186;28;20045;-70
2022/08/17 05:40:17;;;;;;;9.85;7.20;;;28.50;60.90;;;;;;5054022;28;20075;-70
2022/08/17 05:42:43;;;;;;;15.82;6.43;;;28.50;61.80;;;;;;5050981;28;20041;-70
2022/08/17 05:45:10;;;;;;;11.75;6.30;;;28.60;60.70;;;;;;5053880;28;20382;-71
2022/08/17 05:47:38;;;;;;;9.40;6.60;;;28.60;60.20;;;;;;5055403;28;20036;-69
2022/08/17 05:50:07;;;;;;;8.43;6.47;;;28.50;60.00;;;;;;5052684;28;20473;-71
2022/08/17 05:52:38;;;;;;;10.93;6.80;;;28.60;60.10;;;;;;5054213;28;20037;-76
2022/08/17 05:55:20;;;;;;;7.20;4.60;;;28.70;60.40;;;;;;5054777;28;20029;-76
2022/08/17 05:58:15;;;;;;;5.07;4.53;;;28.50;60.50;;;;;;5068527;28;20043;-71
2022/08/17 06:01:05;;;;;;;7.53;5.45;;;28.70;60.10;;;;;;4966267;28;20069;-73
2022/08/17 06:03:55;;;;;;;7.50;5.60;;;28.70;59.90;;;;;;4961984;28;20027;-72
2022/08/17 06:06:22;;;;;;;8.43;5.97;;;28.70;59.90;;;;;;4972368;28;20051;-74
2022/08/17 06:08:47;;;;;;;12.30;6.95;;;28.70;59.80;;;;;;4972221;28;20440;-75
2022/08/17 06:11:36;;;;;;;13.07;6.68;;;28.70;59.40;;;;;;4965792;28;20035;-73
2022/08/17 06:14:25;;;;;;;6.30;4.68;;;28.70;59.20;;;;;;4966625;28;20039;-73
2022/08/17 06:17:07;;;;;;;6.60;4.53;;;28.80;59.50;;;;;;4970480;28;20038;-72
2022/08/17 06:19:53;;;;;;;2.25;1.92;;;28.70;59.50;;;;;;4973171;28;20377;-72
2022/08/17 06:22:23;;;;;;;7.30;4.97;;;28.70;59.50;;;;;;4989256;28;20629;-73
2022/08/17 06:24:55;;;;;;;11.18;6.65;;;28.70;59.50;;;;;;4986131;28;20051;-72
2022/08/17 06:27:34;;;;;;;13.10;7.40;;;28.70;58.90;;;;;;4970541;28;20045;-71
2022/08/17 06:30:20;;;;;;;6.75;5.97;;;28.60;58.70;;;;;;4970192;28;20113;-72
2022/08/17 06:32:48;;;;;;;9.00;4.82;;;28.60;59.30;;;;;;4961285;28;20047;-73
2022/08/17 06:35:36;;;;;;;7.20;5.78;;;28.80;59.20;;;;;;4975759;28;20038;-69
2022/08/17 06:38:13;;;;;;;7.28;5.72;;;28.70;59.30;;;;;;5031066;28;20627;-72
2022/08/17 06:41:15;;;;;;;8.35;5.25;;;28.80;59.10;;;;;;5058105;28;20510;-71
2022/08/17 06:44:00;;;;;;;2.70;1.95;;;28.80;59.10;;;;;;5053283;28;20045;-71
2022/08/17 06:46:35;;;;;;;5.85;4.50;;;28.80;59.10;;;;;;5053928;28;20060;-70
2022/08/17 06:49:12;;;;;;;6.30;4.72;;;28.80;59.00;;;;;;5056293;28;20767;-70
2022/08/17 06:51:49;;;;;;;5.70;4.25;;;28.80;59.20;;;;;;5053110;28;20119;-70
2022/08/17 06:54:48;;;;;;;4.10;3.70;;;28.80;59.10;;;;;;5052534;28;20108;-70
2022/08/17 06:57:24;;;;;;;6.28;4.10;;;28.80;59.20;;;;;;5052782;28;20672;-70
2022/08/17 06:59:57;;;;;;;5.07;4.20;;;28.70;59.10;;;;;;5052741;28;20130;-69
2022/08/17 07:02:45;;;;;;;6.10;3.78;;;28.80;59.10;;;;;;5052514;28;20044;-70
2022/08/17 07:05:14;;;;;;;6.85;4.72;;;28.80;59.20;;;;;;5053083;28;20478;-70
2022/08/17 07:08:01;;;;;;;5.82;4.43;;;28.80;59.20;;;;;;5053018;28;20037;-69
2022/08/17 07:10:32;;;;;;;6.28;4.55;;;28.80;59.30;;;;;;5053194;28;20425;-69
2022/08/17 07:13:12;;;;;;;8.57;4.53;;;28.80;59.30;;;;;;5053278;28;20082;-70
2022/08/17 07:15:43;;;;;;;6.55;4.22;;;28.70;59.40;;;;;;5058166;28;20029;-70
2022/08/17 07:18:10;;;;;;;9.10;5.45;;;28.70;59.40;;;;;;5055733;28;20041;-70
2022/08/17 07:20:41;;;;;;;6.80;4.22;;;28.80;59.00;;;;;;5054790;28;20041;-70
2022/08/17 07:23:28;;;;;;;8.60;5.07;;;28.80;59.10;;;;;;5051925;28;20086;-70
2022/08/17 07:26:06;;;;;;;6.57;4.57;;;28.70;59.30;;;;;;5060341;28;20036;-70
2022/08/17 07:28:34;;;;;;;7.10;4.70;;;28.70;59.30;;;;;;5057581;28;20036;-70
2022/08/17 07:31:02;;;;;;;6.70;4.95;;;28.70;59.50;;;;;;5052862;28;20029;-71
2022/08/17 07:33:31;;;;;;;10.60;4.88;;;28.60;59.40;;;;;;5051737;28;20064;-70
2022/08/17 07:35:58;;;;;;;6.32;4.78;;;28.60;59.40;;;;;;5055023;28;20048;-70
2022/08/17 07:38:29;;;;;;;9.48;7.13;;;28.60;59.60;;;;;;5068082;28;20042;-69
2022/08/17 07:41:05;;;;;;;12.23;9.10;;;28.60;60.10;;;;;;5068857;28;20597;-68
2022/08/17 07:43:40;;;;;;;31.33;18.65;;;28.60;60.80;;;;;;5058619;28;20447;-69
2022/08/17 07:49:13;;;;;;;30.50;19.52;;;28.50;62.40;;;;;;5060761;28;20056;-70
2022/08/17 07:51:42;;;;;;;13.85;9.38;;;28.60;62.00;;;;;;5058780;28;20037;-69
2022/08/17 07:54:30;;;;;;;19.92;12.13;;;28.50;62.10;;;;;;5059815;28;20060;-69
2022/08/17 07:56:59;;;;;;;10.25;6.95;;;28.60;61.90;;;;;;5055605;28;20115;-69
2022/08/17 07:59:37;;;;;;;18.60;11.88;;;28.70;62.40;;;;;;5066678;28;20045;-69
2022/08/17 08:02:29;;;;;;;10.10;7.47;;;28.50;62.30;;;;;;5056152;28;20052;-69
2022/08/17 08:05:11;;;;;;;8.77;6.20;;;28.70;62.10;;;;;;5052418;28;20029;-68
2022/08/17 08:07:49;;;;;;;10.30;5.32;;;28.70;61.30;;;;;;5071011;28;20120;-69
2022/08/17 08:10:15;;;;;;;9.48;4.60;;;28.60;61.30;;;;;;5064574;28;20109;-69
2022/08/17 08:12:59;;;;;;;7.60;4.82;;;28.70;61.00;;;;;;5056730;28;20127;-70
2022/08/17 08:15:35;;;;;;;3.60;2.55;;;28.70;61.10;;;;;;5032218;28;20041;-70
2022/08/17 08:18:18;;;;;;;11.57;7.93;;;28.70;60.80;;;;;;5051295;28;20327;-71
2022/08/17 08:20:52;;;;;;;9.30;6.18;;;28.70;67.00;;;;;;5062466;28;20029;-70
2022/08/17 08:23:57;;;;;;;7.25;4.72;;;28.70;69.40;;;;;;5051883;28;20032;-72
2022/08/17 08:26:35;;;;;;;12.07;6.20;;;28.70;67.60;;;;;;5057887;28;20397;-70
2022/08/17 08:29:11;;;;;;;7.35;4.10;;;28.70;65.20;;;;;;5049427;28;20028;-69
2022/08/17 08:32:10;;;;;;;10.02;4.80;;;28.70;64.10;;;;;;5054522;28;20037;-71
2022/08/17 08:34:52;;;;;;;9.60;5.60;;;28.70;64.10;;;;;;5070153;28;20112;-70
2022/08/17 08:37:24;;;;;;;10.30;5.35;;;28.70;62.80;;;;;;5070474;28;20507;-70
2022/08/17 08:39:56;;;;;;;6.78;5.97;;;28.70;62.70;;;;;;5072218;28;20028;-70
2022/08/17 08:42:26;;;;;;;9.93;6.30;;;28.70;61.50;;;;;;5072117;28;20109;-70
2022/08/17 08:45:12;;;;;;;5.90;4.55;;;28.60;62.00;;;;;;5071805;28;20040;-69
2022/08/17 08:47:58;;;;;;;7.72;5.13;;;28.70;61.90;;;;;;5035118;28;20037;-70
2022/08/17 08:50:41;;;;;;;2.58;2.38;;;28.80;62.20;;;;;;5049187;28;20521;-70
2022/08/17 08:53:13;;;;;;;4.57;3.28;;;28.90;63.50;;;;;;5029106;28;20485;-70
2022/08/17 08:55:48;;;;;;;4.90;3.50;;;28.80;60.80;;;;;;5029341;28;20103;-70
2022/08/17 08:58:20;;;;;;;3.95;2.63;;;29.10;61.90;;;;;;4996111;28;20124;-70
2022/08/17 09:00:53;;;;;;;7.05;6.20;;;29.10;63.00;;;;;;5046304;28;20052;-71
2022/08/17 09:04:02;;;;;;;1.85;1.75;;;29.10;61.80;;;;;;5048885;28;20044;-71
2022/08/17 09:07:05;;;;;;;1.85;1.70;;;29.20;61.00;;;;;;4989838;28;20050;-70
2022/08/17 09:09:56;;;;;;;2.55;2.33;;;29.10;61.00;;;;;;4916797;29;20099;-73
2022/08/17 09:12:56;;;;;;;1.95;1.85;;;29.10;60.60;;;;;;4920031;29;20031;-70
2022/08/17 09:15:33;;;;;;;29.80;3.50;;;29.00;60.90;;;;;;4935787;29;20051;-71
2022/08/17 09:18:07;;;;;;;2.88;2.67;;;29.00;61.50;;;;;;4935678;29;20389;-71
2022/08/17 09:21:00;;;;;;;1.70;1.33;;;29.00;60.80;;;;;;4921929;29;20063;-70
2022/08/17 09:23:41;;;;;;;3.45;3.13;;;29.00;61.70;;;;;;4863176;29;20054;-71
2022/08/17 09:26:38;;;;;;;8.27;4.05;;;29.00;61.10;;;;;;4867628;29;20501;-72
2022/08/17 09:29:11;;;;;;;8.30;7.45;;;29.00;60.70;;;;;;4841800;29;20077;-70
2022/08/17 09:31:57;;;;;;;8.77;7.88;;;29.10;62.60;;;;;;4842091;29;20070;-74
2022/08/17 09:34:33;;;;;;;8.85;7.10;;;29.40;65.20;;;;;;4842057;29;20061;-73
2022/08/17 09:37:18;;;;;;;8.75;6.80;;;29.70;69.00;;;;;;4826499;29;20605;-74
2022/08/17 09:40:24;;;;;;;8.50;6.72;;;29.80;64.10;;;;;;4841911;29;20042;-73
2022/08/17 09:43:13;;;;;;;7.65;6.93;;;29.80;61.50;;;;;;4841821;29;20170;-72
2022/08/17 09:45:41;;;;;;;6.97;5.57;;;29.60;61.00;;;;;;4841478;29;20045;-73
2022/08/17 09:48:20;;;;;;;7.65;5.07;;;29.60;61.80;;;;;;4841876;29;20507;-74
2022/08/17 09:51:13;;;;;;;6.72;6.03;;;29.50;62.50;;;;;;4835323;29;20551;-73
2022/08/17 09:53:39;;;;;;;;;;;29.60;61.60;;;;;;4823200;29;20046;-73
2022/08/17 09:56:27;;;;;;;7.47;6.15;;;29.60;61.70;;;;;;4822860;29;20008;-74
2022/08/17 09:59:26;;;;;;;6.85;6.15;;;29.50;61.60;;;;;;4841530;29;20050;-72
2022/08/17 10:02:19;;;;;;;7.20;6.50;;;29.40;61.30;;;;;;4878562;29;20133;-74
2022/08/17 10:05:14;;;;;;;8.10;5.95;;;29.40;61.30;;;;;;4879318;29;20543;-73
2022/08/17 10:08:07;;;;;;;7.30;6.13;;;29.40;61.10;;;;;;4915669;29;20044;-73
2022/08/17 10:10:57;;;;;;;;;;;29.40;61.00;;;;;;4899957;29;20441;-73
2022/08/17 10:13:44;;;;;;;7.30;6.53;;;29.40;61.00;;;;;;4914999;29;19911;-73
2022/08/17 10:16:22;;;;;;;9.90;6.18;;;29.40;61.20;;;;;;4932226;28;20050;-73
2022/08/17 10:19:00;;;;;;;7.05;6.03;;;29.40;61.20;;;;;;4989318;28;20540;-73
2022/08/17 10:27:16;;;;;;;8.15;6.30;;;29.40;61.30;;;;;;5011881;28;20038;-74
2022/08/17 10:29:54;;;;;;;6.72;5.32;;;29.40;61.40;;;;;;5012088;28;20069;-72
2022/08/17 10:32:39;;;;;;;8.32;5.57;;;29.40;61.50;;;;;;5011650;28;20526;-74
2022/08/17 10:35:42;;;;;;;6.82;5.38;;;29.40;61.40;;;;;;5012104;28;20049;-74
2022/08/17 10:38:27;;;;;;;;;;;29.30;61.60;;;;;;5023880;28;20041;-71
2022/08/17 10:40:58;;;;;;;6.53;5.82;;;29.30;61.50;;;;;;5059417;28;19917;-74
2022/08/17 10:43:50;;;;;;;7.13;6.10;;;29.40;61.60;;;;;;5056543;28;20041;-74
2022/08/17 10:46:54;;;;;;;7.95;6.50;;;29.30;61.60;;;;;;5054410;28;20032;-73
2022/08/17 10:49:20;;;;;;;7.72;6.40;;;29.20;61.90;;;;;;5054049;28;20438;-78
2022/08/17 10:51:58;;;;;;;7.68;5.78;;;29.40;61.80;;;;;;5056367;28;20155;-74
2022/08/17 10:54:24;;;;;;;8.35;5.50;;;29.30;61.80;;;;;;5072476;28;20474;-74
2022/08/17 10:56:55;;;;;;;8.15;6.15;;;29.30;61.80;;;;;;5066346;28;20040;-73
2022/08/17 10:59:33;;;;;;;6.65;5.63;;;29.40;62.00;;;;;;5053496;28;20040;-72
2022/08/17 11:02:24;;;;;;;7.80;5.93;;;29.40;62.50;;;;;;5052673;28;20470;-73
2022/08/17 11:04:59;;;;;;;10.23;6.10;;;29.40;62.50;;;;;;5052327;28;20817;-73
2022/08/17 11:07:32;;;;;;;5.95;5.22;;;29.40;62.50;;;;;;5053695;28;20041;-72
2022/08/17 11:10:31;;;;;;;8.45;5.95;;;29.30;62.50;;;;;;5053409;28;20039;-71
2022/08/17 11:13:22;;;;;;;8.55;2.78;;;29.50;61.50;;;;;;5058548;28;20028;-74
2022/08/17 11:15:59;;;;;;;11.50;7.00;;;29.40;61.70;;;;;;5049503;28;20450;-73
2022/08/17 11:18:57;;;;;;;8.32;6.20;;;29.50;61.50;;;;;;5059652;28;20024;-72
2022/08/17 11:21:46;;;;;;;8.90;5.70;;;29.30;61.00;;;;;;5072061;28;20075;-73
2022/08/17 11:24:17;;;;;;;6.45;5.80;;;29.30;61.30;;;;;;5057210;28;20036;-74
2022/08/17 11:27:19;;;;;;;5.82;4.93;;;29.40;61.00;;;;;;5053411;28;20400;-73
2022/08/17 11:29:53;;;;;;;4.30;3.88;;;29.40;61.20;;;;;;5051971;28;20037;-74
2022/08/17 11:32:47;;;;;;;6.40;5.75;;;29.40;61.20;;;;;;5053156;28;20029;-74
2022/08/17 11:35:18;;;;;;;3.70;3.28;;;29.40;60.70;;;;;;5044041;28;20040;-75
2022/08/17 11:38:06;;;;;;;5.87;5.23;;;29.40;61.00;;;;;;5032453;28;20109;-73
2022/08/17 11:40:56;;;;;;;2.67;2.47;;;29.40;60.90;;;;;;5015721;28;20053;-72
2022/08/17 11:43:48;;;;;;;4.18;2.35;;;29.30;60.60;;;;;;5040825;28;20487;-71
2022/08/17 11:52:40;;;;;;;5.82;4.80;;;29.30;60.50;;;;;;5030422;28;20037;-72
2022/08/17 11:55:10;;;;;;;6.05;4.95;;;29.30;60.40;;;;;;5013385;28;20033;-70
2022/08/17 11:57:41;;;;;;;6.97;5.38;;;29.40;58.90;;;;;;5040178;28;20449;-70
2022/08/17 12:00:46;;;;;;;5.18;4.65;;;29.40;60.40;;;;;;5042283;28;20122;-70
2022/08/17 12:03:21;;;;;;;5.90;4.57;;;29.40;60.00;;;;;;5049079;28;20543;-69
2022/08/17 12:05:48;;;;;;;8.75;5.47;;;29.30;60.50;;;;;;5049236;28;20112;-70
2022/08/17 12:08:21;;;;;;;8.38;5.80;;;29.30;60.60;;;;;;5041165;28;20057;-69
2022/08/17 12:10:55;;;;;;;6.70;4.45;;;29.40;60.70;;;;;;5049768;28;20102;-70
2022/08/17 12:13:23;;;;;;;8.65;4.63;;;29.20;60.00;;;;;;5029823;28;20083;-69
2022/08/17 12:15:52;;;;;;;5.70;5.10;;;29.20;60.60;;;;;;5028821;28;20113;-70
2022/08/17 12:18:24;;;;;;;6.60;4.50;;;29.20;60.20;;;;;;5019075;28;20033;-69
2022/08/17 12:21:16;;;;;;;5.88;4.72;;;29.20;60.70;;;;;;5048108;28;20119;-70
2022/08/17 12:23:58;;;;;;;4.63;4.13;;;29.10;61.00;;;;;;5051964;28;20108;-71
2022/08/17 12:26:29;;;;;;;7.82;5.55;;;29.20;61.20;;;;;;5052055;28;20068;-71
2022/08/17 12:29:10;;;;;;;7.95;5.85;;;29.20;61.20;;;;;;5051907;28;20445;-71
2022/08/17 12:31:43;;;;;;;8.32;5.13;;;29.30;61.10;;;;;;5052205;28;20047;-70
2022/08/17 12:34:22;;;;;;;8.40;5.03;;;29.10;61.50;;;;;;5052971;28;20486;-72
2022/08/17 12:36:50;;;;;;;5.18;4.68;;;29.30;61.60;;;;;;5051800;28;20029;-71
2022/08/17 12:39:22;;;;;;;7.47;4.95;;;29.10;61.30;;;;;;5051897;28;20036;-70
2022/08/17 12:41:51;;;;;;;5.97;4.27;;;29.20;61.30;;;;;;5055945;28;20097;-70
2022/08/17 12:44:32;;;;;;;8.32;4.82;;;29.10;61.40;;;;;;5055984;28;20039;-70
2022/08/17 12:47:06;;;;;;;5.68;5.05;;;29.10;61.40;;;;;;5056623;28;20079;-70
2022/08/17 12:49:37;;;;;;;5.72;4.47;;;29.20;61.40;;;;;;5063600;28;20124;-70
2022/08/17 12:52:23;;;;;;;5.70;4.78;;;29.20;61.40;;;;;;5057475;28;20036;-70
2022/08/17 12:54:59;;;;;;;4.78;4.28;;;29.30;61.50;;;;;;5067592;28;20131;-70
2022/08/17 12:57:33;;;;;;;10.48;4.63;;;29.20;61.60;;;;;;5051806;28;20037;-70
2022/08/17 13:00:16;;;;;;;5.07;4.55;;;29.20;61.50;;;;;;5053959;28;20037;-70
2022/08/17 13:02:50;;;;;;;;;;;29.10;61.30;;;;;;5070808;28;20039;-70
2022/08/17 13:05:22;;;;;;;5.20;3.92;;;29.30;61.30;;;;;;5064228;28;19908;-70
2022/08/17 13:07:49;;;;;;;5.03;3.90;;;29.30;61.30;;;;;;5065414;28;20036;-71
2022/08/17 13:10:26;;;;;;;4.25;3.58;;;29.10;61.30;;;;;;5061585;28;20036;-70
2022/08/17 13:12:53;;;;;;;4.65;3.50;;;29.30;61.20;;;;;;5057899;28;20194;-70
2022/08/17 13:15:30;;;;;;;5.20;3.40;;;29.10;61.30;;;;;;5055168;28;20032;-70
2022/08/17 13:18:00;;;;;;;5.45;3.75;;;29.30;61.10;;;;;;5061946;28;20039;-71
2022/08/17 13:20:26;;;;;;;6.05;3.92;;;29.20;60.60;;;;;;5053159;28;20055;-70
2022/08/17 13:22:57;;;;;;;3.53;3.13;;;29.20;61.00;;;;;;5051010;28;20033;-70
2022/08/17 13:25:26;;;;;;;5.70;3.33;;;29.30;61.00;;;;;;5051352;28;20478;-70
2022/08/17 13:27:54;;;;;;;3.75;3.45;;;29.30;60.70;;;;;;5053263;28;20348;-70
2022/08/17 13:30:27;;;;;;;4.35;3.95;;;29.20;60.90;;;;;;5069430;28;20027;-70
2022/08/17 13:32:56;;;;;;;5.38;3.00;;;29.30;60.90;;;;;;5060279;28;20029;-70
2022/08/17 13:35:43;;;;;;;3.97;3.58;;;29.30;61.00;;;;;;5051504;28;20061;-70
2022/08/17 13:38:36;;;;;;;7.15;3.97;;;29.20;61.00;;;;;;5050067;28;20144;-70
2022/08/17 13:41:06;;;;;;;5.18;4.25;;;29.30;60.90;;;;;;5008751;28;20420;-71
2022/08/17 13:43:47;;;;;;;4.07;3.63;;;29.30;61.00;;;;;;5009107;28;20050;-70
2022/08/17 13:46:25;;;;;;;4.35;3.90;;;29.20;61.00;;;;;;4992548;28;20073;-70
2022/08/17 13:49:01;;;;;;;8.23;3.85;;;29.20;61.00;;;;;;5001300;28;20042;-71
2022/08/17 13:51:34;;;;;;;4.18;3.50;;;29.20;61.00;;;;;;5008704;28;20042;-71